Time;durP1;ratioP1;P1;durP2;ratioP2;P2;SDS_P1;SDS_P2;PMS_P1;PMS_P2;Temp;Humidity;BMP_temperature;BMP_pressure;BME280_temperature;BME280_humidity;BME280_pressure;Samples;Min_cycle;Max_cycle;Signal;HPM_P1;HPM_P2
2023/04/14 00:00:02;;;;;;;1.20;0.63;;;;;;;4.33;100.00;100071.63;699255;28;1801;-64
2023/04/14 00:00:33;;;;;;;1.52;0.60;;;;;;;4.28;100.00;100060.38;700424;28;736;-65
2023/04/14 00:00:53;;;;;;;1.88;0.85;;;;;;;4.26;100.00;100067.25;699668;28;4473;-65
2023/04/14 00:01:15;;;;;;;1.40;0.70;;;;;;;4.28;100.00;100069.84;700235;28;931;-64
2023/04/14 00:01:36;;;;;;;1.17;0.80;;;;;;;4.24;100.00;100069.81;699531;28;1030;-65
2023/04/14 00:01:56;;;;;;;1.27;0.68;;;;;;;4.19;100.00;100070.63;697406;28;1529;-65
2023/04/14 00:02:17;;;;;;;1.55;0.80;;;;;;;4.16;100.00;100075.75;698089;28;859;-64
2023/04/14 00:02:38;;;;;;;1.80;0.90;;;;;;;4.19;100.00;100073.19;695647;28;859;-64
2023/04/14 00:02:59;;;;;;;1.73;0.80;;;;;;;4.17;100.00;100072.31;695645;28;1676;-64
2023/04/14 00:03:20;;;;;;;2.17;1.00;;;;;;;4.18;100.00;100074.03;697326;28;1038;-65
2023/04/14 00:03:41;;;;;;;1.60;0.90;;;;;;;4.18;100.00;100066.28;696385;28;4355;-64
2023/04/14 00:04:03;;;;;;;1.88;0.70;;;;;;;4.21;100.00;100068.91;700228;28;1386;-64
2023/04/14 00:04:26;;;;;;;2.20;0.70;;;;;;;4.20;100.00;100065.44;699682;28;843;-65
2023/04/14 00:04:52;;;;;;;1.23;0.75;;;;;;;4.21;100.00;100074.97;699592;28;1572;-64
2023/04/14 00:05:13;;;;;;;2.00;1.10;;;;;;;4.23;100.00;100068.06;700437;28;899;-64
2023/04/14 00:05:33;;;;;;;1.10;0.83;;;;;;;4.20;100.00;100064.59;701098;28;1109;-65
2023/04/14 00:05:54;;;;;;;1.17;0.70;;;;;;;4.16;100.00;100065.41;701200;28;1506;-65
2023/04/14 00:06:14;;;;;;;1.30;0.70;;;;;;;4.15;100.00;100066.25;701534;28;843;-64
2023/04/14 00:06:34;;;;;;;1.42;0.70;;;;;;;4.13;100.00;100070.56;701263;28;934;-65
2023/04/14 00:06:57;;;;;;;1.87;0.87;;;;;;;4.10;100.00;100068.78;700326;28;4437;-64
2023/04/14 00:07:17;;;;;;;1.83;0.82;;;;;;;4.09;100.00;100064.47;700433;28;1061;-65
2023/04/14 00:07:38;;;;;;;1.20;0.70;;;;;;;4.11;100.00;100062.75;700728;28;785;-65
2023/04/14 00:07:58;;;;;;;1.00;0.60;;;;;;;4.11;100.00;100069.66;700228;28;1457;-65
2023/04/14 00:08:21;;;;;;;1.37;0.73;;;;;;;4.13;100.00;100065.38;701326;28;961;-66
2023/04/14 00:08:41;;;;;;;1.58;0.77;;;;;;;4.14;100.00;100067.09;700186;28;910;-65
2023/04/14 00:09:02;;;;;;;1.93;0.80;;;;;;;4.13;100.00;100065.38;699674;28;1613;-65
2023/04/14 00:09:22;;;;;;;2.00;0.70;;;;;;;4.11;100.00;100072.25;699639;28;1318;-65
2023/04/14 00:09:43;;;;;;;0.90;0.70;;;;;;;4.09;100.00;100065.31;699246;28;4355;-65
2023/04/14 00:10:03;;;;;;;1.40;0.70;;;;;;;4.11;100.00;100065.34;699145;28;1461;-65
2023/04/14 00:10:25;;;;;;;2.20;1.10;;;;;;;4.11;100.00;100070.50;699572;28;910;-65
2023/04/14 00:10:45;;;;;;;1.20;0.90;;;;;;;4.12;100.00;100072.25;698815;28;1634;-65
2023/04/14 00:11:05;;;;;;;1.40;0.70;;;;;;;4.13;100.00;100071.41;700548;28;1104;-66
2023/04/14 00:11:26;;;;;;;1.58;0.80;;;;;;;4.15;100.00;100069.69;699749;28;795;-66
2023/04/14 00:11:46;;;;;;;0.93;0.60;;;;;;;4.15;100.00;100074.00;699699;28;1535;-65
2023/04/14 00:12:07;;;;;;;1.85;0.70;;;;;;;4.12;100.00;100069.66;700412;28;959;-65
2023/04/14 00:12:27;;;;;;;1.00;0.70;;;;;;;4.11;100.00;100070.50;700673;28;1002;-65
2023/04/14 00:12:47;;;;;;;1.90;0.80;;;;;;;4.14;100.00;100070.56;698467;28;4649;-66
2023/04/14 00:13:08;;;;;;;1.70;0.90;;;;;;;4.13;100.00;100073.13;700365;28;859;-65
2023/04/14 00:13:28;;;;;;;1.10;0.70;;;;;;;4.11;100.00;100069.66;699980;28;847;-66
2023/04/14 00:13:48;;;;;;;1.48;0.70;;;;;;;4.10;100.00;100068.78;699727;28;1631;-66
2023/04/14 00:14:09;;;;;;;0.90;0.60;;;;;;;4.09;100.00;100065.31;700489;28;1278;-66
2023/04/14 00:14:29;;;;;;;1.90;0.70;;;;;;;4.07;100.00;100072.22;700139;28;839;-65
2023/04/14 00:14:49;;;;;;;1.00;0.70;;;;;;;4.06;100.00;100073.03;700445;28;1439;-66
2023/04/14 00:15:12;;;;;;;0.90;0.70;;;;;;;4.04;100.00;100064.41;698308;28;971;-65
2023/04/14 00:15:33;;;;;;;1.33;0.70;;;;;;;4.04;100.00;100067.00;697712;28;990;-66
2023/04/14 00:15:54;;;;;;;1.17;0.70;;;;;;;4.04;100.00;100064.41;698029;28;4389;-65
2023/04/14 00:16:14;;;;;;;0.80;0.60;;;;;;;4.05;100.00;100066.13;700615;28;3386;-65
2023/04/14 00:16:34;;;;;;;1.40;0.80;;;;;;;4.04;100.00;100067.00;701372;28;902;-65
2023/04/14 00:16:55;;;;;;;1.15;0.85;;;;;;;4.05;100.00;100071.31;700263;28;1462;-65
2023/04/14 00:17:15;;;;;;;1.53;0.80;;;;;;;4.05;100.00;100063.53;699274;28;1914;-65
2023/04/14 00:17:35;;;;;;;1.33;0.75;;;;;;;4.04;100.00;100074.75;701084;28;1242;-65
2023/04/14 00:17:56;;;;;;;1.30;0.80;;;;;;;4.01;100.00;100066.94;700976;28;1520;-65
2023/04/14 00:18:16;;;;;;;1.07;0.70;;;;;;;4.02;100.00;100067.84;701086;28;888;-65
2023/04/14 00:18:37;;;;;;;1.50;0.73;;;;;;;4.02;100.00;100070.41;701455;28;982;-64
2023/04/14 00:18:57;;;;;;;1.20;0.67;;;;;;;4.02;100.00;100068.69;700343;28;4562;-66
2023/04/14 00:19:17;;;;;;;1.60;0.60;;;;;;;4.04;100.00;100066.13;701167;28;958;-65
2023/04/14 00:19:38;;;;;;;2.00;0.77;;;;;;;4.03;100.00;100070.44;699463;28;806;-65
2023/04/14 00:19:58;;;;;;;1.70;0.80;;;;;;;4.04;100.00;100072.19;700346;28;1563;-66
2023/04/14 00:20:19;;;;;;;2.00;0.67;;;;;;;4.02;100.00;100071.28;700152;28;871;-66
2023/04/14 00:20:39;;;;;;;1.60;0.52;;;;;;;4.02;100.00;100076.44;700068;28;883;-65
2023/04/14 00:21:01;;;;;;;1.27;0.60;;;;;;;4.03;100.00;100077.31;700679;28;1560;-63
2023/04/14 00:21:21;;;;;;;1.80;0.70;;;;;;;4.03;100.00;100075.59;699294;28;927;-66
2023/04/14 00:21:41;;;;;;;2.00;0.70;;;;;;;3.99;100.00;100078.09;699946;28;4276;-65
2023/04/14 00:22:02;;;;;;;1.45;0.60;;;;;;;3.95;100.00;100081.53;698219;28;1473;-65
2023/04/14 00:22:22;;;;;;;1.70;0.90;;;;;;;3.94;100.00;100080.66;698398;28;1078;-66
2023/04/14 00:22:42;;;;;;;2.03;0.83;;;;;;;3.93;100.00;100078.91;701181;28;788;-66
2023/04/14 00:23:05;;;;;;;1.92;0.80;;;;;;;3.92;100.00;100074.59;701098;28;1786;-66
2023/04/14 00:23:25;;;;;;;1.17;0.73;;;;;;;3.93;100.00;100081.50;701390;28;812;-65
2023/04/14 00:23:45;;;;;;;1.98;0.80;;;;;;;3.92;100.00;100083.22;700223;28;1484;-66
2023/04/14 00:24:06;;;;;;;1.20;0.70;;;;;;;3.95;100.00;100084.13;700642;28;1104;-65
2023/04/14 00:24:26;;;;;;;1.00;0.70;;;;;;;3.95;100.00;100082.41;699361;28;967;-65
2023/04/14 00:24:46;;;;;;;1.23;0.70;;;;;;;3.96;100.00;100088.44;699605;28;4531;-65
2023/04/14 00:25:07;;;;;;;1.80;0.70;;;;;;;3.95;100.00;100090.16;700508;28;957;-65
2023/04/14 00:25:27;;;;;;;0.82;0.52;;;;;;;3.92;100.00;100079.78;699704;28;879;-65
2023/04/14 00:25:48;;;;;;;1.07;0.70;;;;;;;3.92;100.00;100084.94;700167;28;871;-65
2023/04/14 00:26:11;;;;;;;1.42;0.70;;;;;;;3.91;100.00;100090.97;699751;28;876;-65
2023/04/14 00:26:34;;;;;;;1.10;0.80;;;;;;;3.90;100.00;100079.75;700117;28;907;-65
2023/04/14 00:26:55;;;;;;;0.75;0.60;;;;;;;3.91;100.00;100078.88;700386;28;1599;-65
2023/04/14 00:27:16;;;;;;;1.00;0.60;;;;;;;3.87;100.00;100084.00;700533;28;899;-65
2023/04/14 00:27:36;;;;;;;2.70;0.90;;;;;;;3.86;100.00;100085.75;700271;28;990;-66
2023/04/14 00:27:56;;;;;;;2.40;0.90;;;;;;;3.89;100.00;100083.19;698830;28;4584;-65
2023/04/14 00:28:17;;;;;;;0.90;0.68;;;;;;;3.90;100.00;100087.53;700062;28;820;-65
2023/04/14 00:28:39;;;;;;;1.20;0.68;;;;;;;3.90;100.00;100081.47;696921;28;1790;-66
2023/04/14 00:29:00;;;;;;;1.40;0.70;;;;;;;3.89;100.00;100084.88;697483;28;1605;-66
2023/04/14 00:29:20;;;;;;;1.13;0.80;;;;;;;3.89;100.00;100077.13;697522;28;1066;-65
2023/04/14 00:29:40;;;;;;;1.43;0.80;;;;;;;3.87;100.00;100086.59;698027;28;899;-65
2023/04/14 00:30:01;;;;;;;1.40;0.82;;;;;;;3.81;100.00;100081.31;697186;28;1474;-65
2023/04/14 00:30:21;;;;;;;1.60;0.83;;;;;;;3.79;100.00;100077.88;700016;28;985;-65
2023/04/14 00:30:41;;;;;;;1.05;0.80;;;;;;;3.75;100.00;100080.41;696597;28;4584;-65
2023/04/14 00:31:02;;;;;;;0.80;0.73;;;;;;;3.77;100.00;100084.72;697441;28;1506;-65
2023/04/14 00:31:26;;;;;;;1.25;0.70;;;;;;;3.78;100.00;100083.88;697089;28;1252;-66
2023/04/14 00:31:46;;;;;;;2.25;1.00;;;;;;;3.79;100.00;100080.44;697698;28;1060;-66
2023/04/14 00:32:07;;;;;;;2.00;0.70;;;;;;;3.81;100.00;100083.91;697745;28;911;-65
2023/04/14 00:32:29;;;;;;;0.77;0.60;;;;;;;3.81;100.00;100078.75;695886;28;1002;-67
2023/04/14 00:32:50;;;;;;;1.20;0.60;;;;;;;3.79;100.00;100083.03;698212;28;1719;-65
2023/04/14 00:33:11;;;;;;;1.70;0.65;;;;;;;3.75;100.00;100080.41;697632;28;1259;-65
2023/04/14 00:33:31;;;;;;;1.80;0.80;;;;;;;3.77;100.00;100092.47;693530;28;1346;-66
2023/04/14 00:33:51;;;;;;;0.87;0.60;;;;;;;3.74;100.00;100078.69;694215;28;4312;-66
2023/04/14 00:34:12;;;;;;;1.07;0.50;;;;;;;3.73;100.00;100082.09;694690;28;1163;-66
2023/04/14 00:34:33;;;;;;;0.80;0.50;;;;;;;3.78;100.00;100083.88;698415;28;1128;-66
2023/04/14 00:34:55;;;;;;;1.00;0.60;;;;;;;3.78;100.00;100084.78;694987;28;966;-66
2023/04/14 00:35:16;;;;;;;1.92;0.70;;;;;;;3.75;100.00;100075.25;695990;28;857;-66
2023/04/14 00:35:36;;;;;;;1.27;0.60;;;;;;;3.75;100.00;100080.41;696628;28;900;-66
2023/04/14 00:35:56;;;;;;;0.98;0.60;;;;;;;3.75;100.00;100084.69;693925;28;1637;-65
2023/04/14 00:36:17;;;;;;;1.83;0.90;;;;;;;3.71;100.00;100082.91;693359;28;1198;-65
2023/04/14 00:36:37;;;;;;;1.50;0.70;;;;;;;3.65;100.00;100083.72;695587;28;930;-65
2023/04/14 00:36:58;;;;;;;1.53;0.60;;;;;;;3.62;100.00;100085.41;697145;28;4516;-65
2023/04/14 00:37:18;;;;;;;0.98;0.60;;;;;;;3.60;100.00;100085.38;694918;28;1974;-65
2023/04/14 00:37:38;;;;;;;2.00;0.90;;;;;;;3.58;100.00;100087.06;695296;28;832;-65
2023/04/14 00:37:59;;;;;;;1.40;0.67;;;;;;;3.58;100.00;100081.88;697879;28;1674;-65
2023/04/14 00:38:19;;;;;;;1.17;0.75;;;;;;;3.57;100.00;100081.03;694593;28;963;-65
2023/04/14 00:38:40;;;;;;;1.13;0.60;;;;;;;3.57;100.00;100077.56;691929;28;1146;-65
2023/04/14 00:39:00;;;;;;;1.67;0.98;;;;;;;3.57;100.00;100082.72;695146;28;5467;-65
2023/04/14 00:39:21;;;;;;;1.10;0.80;;;;;;;3.57;100.00;100080.16;698643;28;823;-65
2023/04/14 00:39:42;;;;;;;1.20;0.60;;;;;;;3.54;100.00;100085.28;695477;28;4251;-66
2023/04/14 00:40:02;;;;;;;1.03;0.43;;;;;;;3.53;100.00;100083.53;692783;28;1420;-66
2023/04/14 00:40:23;;;;;;;0.90;0.50;;;;;;;3.49;100.00;100080.06;694932;28;868;-65
2023/04/14 00:40:44;;;;;;;1.08;0.70;;;;;;;3.46;100.00;100081.72;698645;28;942;-65
2023/04/14 00:41:04;;;;;;;1.10;0.60;;;;;;;3.45;100.00;100074.78;693451;28;1759;-65
2023/04/14 00:41:25;;;;;;;1.13;0.70;;;;;;;3.43;100.00;100081.66;694899;28;761;-65
2023/04/14 00:41:46;;;;;;;1.02;0.50;;;;;;;3.39;100.00;100086.78;696580;28;894;-65
2023/04/14 00:42:06;;;;;;;1.40;0.50;;;;;;;3.38;100.00;100079.88;700177;28;946;-65
2023/04/14 00:42:26;;;;;;;1.47;0.70;;;;;;;3.38;100.00;100077.31;699907;28;911;-65
2023/04/14 00:42:47;;;;;;;1.73;0.73;;;;;;;3.40;100.00;100080.75;696776;28;4367;-65
2023/04/14 00:43:07;;;;;;;2.50;0.80;;;;;;;3.46;100.00;100086.88;699737;28;803;-65
2023/04/14 00:43:28;;;;;;;0.80;0.60;;;;;;;3.45;100.00;100079.97;698039;28;931;-63
2023/04/14 00:43:52;;;;;;;1.43;0.90;;;;;;;3.45;100.00;100080.84;696351;28;1211;-65
2023/04/14 00:44:12;;;;;;;0.60;0.52;;;;;;;3.47;100.00;100091.22;692643;28;1248;-66
2023/04/14 00:44:33;;;;;;;0.70;0.50;;;;;;;3.48;100.00;100080.03;692727;28;1149;-65
2023/04/14 00:44:53;;;;;;;1.27;0.40;;;;;;;3.47;100.00;100088.63;694183;28;1479;-66
2023/04/14 00:45:14;;;;;;;1.87;0.80;;;;;;;3.47;100.00;100089.47;695076;28;994;-65
2023/04/14 00:45:44;;;;;;;1.92;0.70;;;;;;;3.48;100.00;100082.63;696410;28;957;-65
2023/04/14 00:46:05;;;;;;;1.55;0.60;;;;;;;3.47;100.00;100088.63;698498;28;4957;-65
2023/04/14 00:46:26;;;;;;;1.77;0.75;;;;;;;3.47;100.00;100089.47;699959;28;2040;-65
2023/04/14 00:46:46;;;;;;;1.40;0.80;;;;;;;3.44;100.00;100086.84;700204;28;1442;-66
2023/04/14 00:47:08;;;;;;;1.40;0.70;;;;;;;3.37;100.00;100091.06;698545;28;1340;-65
2023/04/14 00:47:28;;;;;;;1.67;0.70;;;;;;;3.36;100.00;100091.03;694254;28;1236;-65
2023/04/14 00:47:49;;;;;;;1.38;0.60;;;;;;;3.38;100.00;100091.94;690686;28;1527;-65
2023/04/14 00:48:10;;;;;;;1.48;0.65;;;;;;;3.39;100.00;100094.56;690329;28;975;-66
2023/04/14 00:48:30;;;;;;;1.20;0.70;;;;;;;3.37;100.00;100091.06;692319;28;1275;-65
2023/04/14 00:48:50;;;;;;;1.03;0.53;;;;;;;3.33;100.00;100093.59;689663;28;4531;-65
2023/04/14 00:49:11;;;;;;;2.13;0.80;;;;;;;3.29;100.00;100092.66;690462;28;845;-65
2023/04/14 00:49:32;;;;;;;2.05;0.75;;;;;;;3.26;100.00;100095.19;690514;28;754;-65
2023/04/14 00:49:52;;;;;;;1.52;0.60;;;;;;;3.23;100.00;100095.16;692452;28;1522;-65
2023/04/14 00:50:15;;;;;;;1.40;0.60;;;;;;;3.22;100.00;100093.41;695893;28;920;-65
2023/04/14 00:50:35;;;;;;;1.33;0.70;;;;;;;3.24;100.00;100094.31;693583;28;821;-65
2023/04/14 00:50:56;;;;;;;1.60;0.80;;;;;;;3.28;100.00;100096.09;695317;28;1518;-65
2023/04/14 00:51:17;;;;;;;1.20;0.50;;;;;;;3.30;100.00;100091.81;695843;28;1070;-66
2023/04/14 00:51:37;;;;;;;0.90;0.50;;;;;;;3.31;100.00;100092.66;697423;28;804;-65
2023/04/14 00:51:58;;;;;;;1.40;0.60;;;;;;;3.27;100.00;100099.53;693793;28;5481;-65
2023/04/14 00:52:22;;;;;;;0.98;0.70;;;;;;;3.23;100.00;100100.31;692945;28;1354;-65
2023/04/14 00:52:45;;;;;;;2.13;0.60;;;;;;;3.23;100.00;100095.16;692561;28;936;-65
2023/04/14 00:53:06;;;;;;;3.10;0.68;;;;;;;3.23;100.00;100100.31;693755;28;1138;-66
2023/04/14 00:53:27;;;;;;;2.00;0.60;;;;;;;3.28;100.00;100103.84;696744;28;803;-65
2023/04/14 00:53:50;;;;;;;0.98;0.50;;;;;;;3.33;100.00;100101.34;699039;28;1526;-64
2023/04/14 00:54:11;;;;;;;1.10;0.70;;;;;;;3.37;100.00;100100.53;699537;28;888;-65
2023/04/14 00:54:33;;;;;;;0.90;0.68;;;;;;;3.40;100.00;100101.44;701408;28;903;-65
2023/04/14 00:54:53;;;;;;;0.95;0.70;;;;;;;3.44;100.00;100104.09;700440;28;4352;-65
2023/04/14 00:55:16;;;;;;;1.27;0.70;;;;;;;3.41;100.00;100100.59;698037;28;959;-65
2023/04/14 00:55:39;;;;;;;1.35;0.80;;;;;;;3.38;100.00;100100.56;698026;28;1460;-65
2023/04/14 00:56:00;;;;;;;1.00;0.60;;;;;;;3.36;100.00;100102.22;695644;28;1491;-65
2023/04/14 00:56:21;;;;;;;1.20;0.70;;;;;;;3.33;100.00;100107.34;698030;28;970;-66
2023/04/14 00:56:41;;;;;;;1.27;0.70;;;;;;;3.32;100.00;100105.59;696071;28;1307;-65
2023/04/14 00:57:04;;;;;;;0.90;0.60;;;;;;;3.34;100.00;100109.09;696603;28;1561;-65
2023/04/14 00:57:25;;;;;;;0.80;0.50;;;;;;;3.32;100.00;100100.44;697328;28;1910;-65
2023/04/14 00:57:46;;;;;;;1.80;0.57;;;;;;;3.30;100.00;100102.16;696480;28;4620;-65
2023/04/14 00:58:08;;;;;;;2.85;0.80;;;;;;;3.27;100.00;100104.69;698215;28;1010;-65
2023/04/14 00:58:29;;;;;;;2.95;1.00;;;;;;;3.24;100.00;100102.06;696946;28;911;-65
2023/04/14 00:58:51;;;;;;;0.73;0.50;;;;;;;3.25;100.00;100101.19;697288;28;1448;-65
2023/04/14 00:59:12;;;;;;;0.85;0.50;;;;;;;3.28;100.00;100101.28;697994;28;1202;-66
2023/04/14 00:59:33;;;;;;;0.90;0.50;;;;;;;3.27;100.00;100104.69;697763;28;947;-65
2023/04/14 00:59:53;;;;;;;1.13;0.60;;;;;;;3.30;100.00;100103.88;697402;28;1473;-65
2023/04/14 01:00:14;;;;;;;2.03;0.80;;;;;;;3.30;100.00;100109.03;698131;28;876;-64
2023/04/14 01:00:36;;;;;;;2.00;0.70;;;;;;;3.27;100.00;100106.38;699629;28;779;-65
2023/04/14 01:00:57;;;;;;;1.77;0.63;;;;;;;3.22;100.00;100111.50;699839;28;4576;-65
2023/04/14 01:01:17;;;;;;;1.60;0.70;;;;;;;3.22;100.00;100103.75;700584;28;1457;-65
2023/04/14 01:01:39;;;;;;;1.77;0.65;;;;;;;3.22;100.00;100108.91;697867;28;1014;-65
2023/04/14 01:02:00;;;;;;;2.33;0.70;;;;;;;3.22;100.00;100103.75;697922;28;1435;-65
2023/04/14 01:02:20;;;;;;;2.03;0.70;;;;;;;3.21;100.00;100107.16;696574;28;975;-65
2023/04/14 01:02:43;;;;;;;1.90;0.70;;;;;;;3.21;100.00;100107.16;696037;28;1685;-64
2023/04/14 01:03:05;;;;;;;1.40;0.80;;;;;;;3.22;100.00;100114.06;695870;28;1460;-65
2023/04/14 01:03:25;;;;;;;1.43;0.77;;;;;;;3.24;100.00;100112.41;695917;28;1177;-65
2023/04/14 01:03:46;;;;;;;1.75;0.85;;;;;;;3.22;100.00;100103.75;694647;28;4383;-66
2023/04/14 01:04:07;;;;;;;1.60;0.70;;;;;;;3.21;100.00;100110.63;695318;28;1468;-65
2023/04/14 01:04:30;;;;;;;1.63;0.80;;;;;;;3.20;100.00;100108.03;695891;28;885;-65
2023/04/14 01:04:51;;;;;;;1.23;0.77;;;;;;;3.18;100.00;100102.81;694859;28;1490;-65
2023/04/14 01:05:12;;;;;;;1.90;0.77;;;;;;;3.18;100.00;100113.13;695740;28;915;-65
2023/04/14 01:05:33;;;;;;;1.50;0.70;;;;;;;3.19;100.00;100107.13;693642;28;1176;-65
2023/04/14 01:05:53;;;;;;;0.75;0.55;;;;;;;3.19;100.00;100112.31;696092;28;1493;-65
2023/04/14 01:06:14;;;;;;;1.77;0.80;;;;;;;3.16;100.00;100108.81;693625;28;1140;-65
2023/04/14 01:06:35;;;;;;;1.65;0.80;;;;;;;3.14;100.00;100113.06;691771;28;1296;-66
2023/04/14 01:06:55;;;;;;;1.20;0.70;;;;;;;3.15;100.00;100112.25;693396;28;4320;-65
2023/04/14 01:07:17;;;;;;;1.13;0.47;;;;;;;3.14;100.00;100113.94;695191;28;1038;-65
2023/04/14 01:07:39;;;;;;;1.63;0.57;;;;;;;3.12;100.00;100115.63;693964;28;1480;-65
2023/04/14 01:08:02;;;;;;;1.08;0.50;;;;;;;3.10;100.00;100112.13;692693;28;1511;-65
2023/04/14 01:08:23;;;;;;;1.92;0.65;;;;;;;3.08;100.00;100113.00;695279;28;908;-66
2023/04/14 01:08:44;;;;;;;2.15;1.13;;;;;;;3.06;100.00;100113.81;695470;28;1346;-64
2023/04/14 01:09:06;;;;;;;1.23;0.90;;;;;;;3.05;100.00;100116.38;695369;28;1559;-65
2023/04/14 01:09:27;;;;;;;1.65;0.98;;;;;;;3.06;100.00;100118.13;697076;28;942;-65
2023/04/14 01:09:47;;;;;;;1.90;0.80;;;;;;;3.05;100.00;100113.81;698605;28;4511;-65
2023/04/14 01:10:09;;;;;;;1.00;0.60;;;;;;;3.02;100.00;100113.75;698059;28;1493;-65
2023/04/14 01:10:37;;;;;;;1.00;0.50;;;;;;;2.98;100.00;100117.13;696191;28;1407;-65
2023/04/14 01:11:05;;;;;;;2.00;0.60;;;;;;;2.94;100.00;100118.78;694659;28;1452;-65
2023/04/14 01:11:39;;;;;;;1.50;0.60;;;;;;;2.94;100.00;100118.78;695237;28;944;-65
2023/04/14 01:12:27;;;;;;;1.80;0.80;;;;;;;2.95;100.00;100117.03;692125;28;1481;-65
2023/04/14 01:13:23;;;;;;;1.00;0.63;;;;;;;2.97;100.00;100113.66;695283;28;4408;-66
2023/04/14 01:14:06;;;;;;;0.95;0.63;;;;;;;2.93;100.00;100117.03;694446;28;939;-65
2023/04/14 01:14:41;;;;;;;1.00;0.60;;;;;;;2.96;100.00;100117.06;698363;28;1046;-65
2023/04/14 01:15:21;;;;;;;1.50;0.70;;;;;;;2.98;100.00;100115.41;697447;28;953;-65
2023/04/14 01:16:07;;;;;;;0.63;0.47;;;;;;;2.91;100.00;100116.16;698517;28;4321;-65
2023/04/14 01:16:32;;;;;;;1.13;0.55;;;;;;;2.90;100.00;100114.41;699669;28;859;-68
2023/04/14 01:16:58;;;;;;;1.50;0.70;;;;;;;2.92;100.00;100122.16;698165;28;1504;-65
2023/04/14 01:17:43;;;;;;;1.58;0.75;;;;;;;2.94;100.00;100123.94;699395;28;1934;-65
2023/04/14 01:18:44;;;;;;;1.17;0.70;;;;;;;2.93;100.00;100124.78;699018;28;1535;-65
2023/04/14 01:19:46;;;;;;;1.95;0.93;;;;;;;2.78;100.00;100127.09;690153;28;5121;-65
2023/04/14 01:20:27;;;;;;;1.60;0.80;;;;;;;2.70;100.00;100121.75;680242;29;1606;-65
2023/04/14 01:20:55;;;;;;;1.40;0.80;;;;;;;2.66;100.00;100128.59;682238;28;1467;-65
2023/04/14 01:21:27;;;;;;;1.25;0.88;;;;;;;2.62;100.00;100129.38;697813;28;1368;-65
2023/04/14 01:21:51;;;;;;;1.10;0.63;;;;;;;2.63;100.00;100127.66;695649;28;4280;-64
2023/04/14 01:22:15;;;;;;;2.05;0.90;;;;;;;2.63;100.00;100128.56;694617;28;2138;-66
2023/04/14 01:22:43;;;;;;;1.13;0.60;;;;;;;2.62;100.00;100118.19;693785;28;801;-65
2023/04/14 01:23:08;;;;;;;1.10;0.85;;;;;;;2.60;100.00;100128.47;695244;28;1425;-65
2023/04/14 01:23:34;;;;;;;1.40;0.60;;;;;;;2.58;100.00;100124.16;695230;28;1235;-67
2023/04/14 01:24:15;;;;;;;1.42;0.68;;;;;;;2.59;100.00;100121.59;695241;28;1543;-66
2023/04/14 01:24:38;;;;;;;0.98;0.52;;;;;;;2.60;100.00;100123.31;693500;28;1750;-65
2023/04/14 01:25:21;;;;;;;1.02;0.52;;;;;;;2.64;100.00;100126.81;692680;28;4936;-65
2023/04/14 01:25:50;;;;;;;1.15;0.55;;;;;;;2.67;100.00;100120.03;694849;28;946;-66
2023/04/14 01:26:19;;;;;;;1.38;0.77;;;;;;;2.69;100.00;100126.06;691845;28;1686;-65
2023/04/14 01:26:41;;;;;;;1.33;0.63;;;;;;;2.70;100.00;100124.34;688389;28;999;-65
2023/04/14 01:27:13;;;;;;;1.35;0.70;;;;;;;2.70;100.00;100126.94;690409;28;1566;-65
2023/04/14 01:27:56;;;;;;;0.90;0.60;;;;;;;2.71;100.00;100121.81;692478;28;798;-65
2023/04/14 01:28:38;;;;;;;0.90;0.63;;;;;;;2.72;100.00;100122.69;696364;28;6254;-64
2023/04/14 01:29:38;;;;;;;0.93;0.60;;;;;;;2.73;100.00;100129.59;696582;28;1521;-65
2023/04/14 01:29:58;;;;;;;1.30;0.70;;;;;;;2.65;100.00;100132.00;694835;28;1491;-65
2023/04/14 01:30:41;;;;;;;1.70;0.60;;;;;;;2.59;100.00;100137.06;694766;28;1233;-65
2023/04/14 01:31:22;;;;;;;2.45;0.90;;;;;;;2.55;100.00;100130.13;691785;28;5469;-65
2023/04/14 01:31:48;;;;;;;0.93;0.68;;;;;;;2.54;100.00;100128.38;693052;28;909;-65
2023/04/14 01:32:13;;;;;;;2.03;0.95;;;;;;;2.55;100.00;100127.53;696367;28;1082;-65
2023/04/14 01:32:38;;;;;;;1.35;0.90;;;;;;;2.57;100.00;100136.16;693621;28;1347;-65
2023/04/14 01:33:04;;;;;;;0.90;0.60;;;;;;;2.58;100.00;100130.16;696400;28;1462;-66
2023/04/14 01:33:29;;;;;;;0.77;0.50;;;;;;;2.60;100.00;100131.06;697799;28;770;-65
2023/04/14 01:34:06;;;;;;;1.90;0.80;;;;;;;2.59;100.00;100131.91;693143;28;4527;-65
2023/04/14 01:34:48;;;;;;;1.63;0.80;;;;;;;2.60;100.00;100132.78;696035;28;921;-65
2023/04/14 01:35:19;;;;;;;1.25;0.73;;;;;;;2.64;100.00;100132.00;696532;28;809;-68
2023/04/14 01:35:52;;;;;;;0.73;0.52;;;;;;;2.66;100.00;100127.72;698200;28;1047;-65
2023/04/14 01:36:21;;;;;;;1.63;0.82;;;;;;;2.67;100.00;100137.19;700126;28;793;-65
2023/04/14 01:36:52;;;;;;;1.52;0.73;;;;;;;2.68;100.00;100132.06;699493;28;4498;-65
2023/04/14 01:37:16;;;;;;;0.90;0.60;;;;;;;2.69;100.00;100125.22;695868;28;1275;-65
2023/04/14 01:37:43;;;;;;;1.17;0.60;;;;;;;2.68;100.00;100132.06;695513;28;865;-65
2023/04/14 01:38:09;;;;;;;1.80;0.70;;;;;;;2.69;100.00;100131.22;694327;28;1640;-65
2023/04/14 01:38:33;;;;;;;1.10;0.60;;;;;;;2.68;100.00;100132.06;694658;28;817;-65
2023/04/14 01:38:55;;;;;;;0.98;0.60;;;;;;;2.69;100.00;100122.63;692023;28;5318;-65
2023/04/14 01:39:19;;;;;;;1.27;0.68;;;;;;;2.72;100.00;100127.84;695115;28;1526;-65
2023/04/14 01:39:44;;;;;;;0.80;0.65;;;;;;;2.73;100.00;100133.03;688541;28;4513;-65
2023/04/14 01:40:11;;;;;;;0.82;0.60;;;;;;;2.75;100.00;100127.03;690112;28;1612;-65
2023/04/14 01:40:34;;;;;;;0.75;0.60;;;;;;;2.75;100.00;100127.03;690724;28;1307;-65
2023/04/14 01:40:58;;;;;;;1.30;0.70;;;;;;;2.72;100.00;100131.28;693507;28;1475;-65
2023/04/14 01:41:21;;;;;;;2.17;0.80;;;;;;;2.71;100.00;100131.25;695317;28;843;-66
2023/04/14 01:41:45;;;;;;;1.20;0.80;;;;;;;2.69;100.00;100135.53;692473;28;1220;-65
2023/04/14 01:42:10;;;;;;;1.58;0.80;;;;;;;2.69;100.00;100128.66;692277;28;1388;-65
2023/04/14 01:42:35;;;;;;;0.90;0.60;;;;;;;2.68;100.00;100137.22;692412;28;1275;-65
2023/04/14 01:43:01;;;;;;;1.20;0.70;;;;;;;2.67;100.00;100138.09;691137;28;4281;-65
2023/04/14 01:43:29;;;;;;;2.00;0.80;;;;;;;2.64;100.00;100130.25;691248;28;1396;-65
2023/04/14 01:43:54;;;;;;;1.10;0.80;;;;;;;2.64;100.00;100130.25;690522;28;1727;-65
2023/04/14 01:44:17;;;;;;;1.48;0.63;;;;;;;2.62;100.00;100131.97;692496;28;987;-65
2023/04/14 01:44:40;;;;;;;1.63;0.80;;;;;;;2.58;100.00;100127.59;695569;28;801;-65
2023/04/14 01:45:14;;;;;;;1.10;0.65;;;;;;;2.55;100.00;100130.97;698480;28;1503;-65
2023/04/14 01:45:40;;;;;;;1.15;0.60;;;;;;;2.53;100.00;100129.19;696038;28;977;-65
2023/04/14 01:46:06;;;;;;;1.17;0.70;;;;;;;2.51;100.00;100126.59;697613;28;4869;-65
2023/04/14 01:46:26;;;;;;;1.70;0.70;;;;;;;2.50;100.00;100130.00;698467;28;1933;-65
2023/04/14 01:46:51;;;;;;;0.75;0.50;;;;;;;2.52;100.00;100132.59;698588;28;914;-66
2023/04/14 01:47:15;;;;;;;1.45;0.70;;;;;;;2.52;100.00;100135.19;699249;28;864;-65
2023/04/14 01:47:36;;;;;;;1.55;0.77;;;;;;;2.50;100.00;100136.88;697930;28;1015;-65
2023/04/14 01:47:58;;;;;;;0.70;0.60;;;;;;;2.47;100.00;100136.84;695509;28;1538;-67
2023/04/14 01:48:18;;;;;;;0.80;0.60;;;;;;;2.48;100.00;100130.81;694945;28;864;-65
2023/04/14 01:48:44;;;;;;;1.27;0.60;;;;;;;2.48;100.00;100128.22;695450;28;4415;-66
2023/04/14 01:49:05;;;;;;;1.10;0.70;;;;;;;2.50;100.00;100132.59;692489;28;959;-65
2023/04/14 01:49:28;;;;;;;1.08;0.70;;;;;;;2.49;100.00;100128.28;694082;28;1106;-65
2023/04/14 01:49:52;;;;;;;1.27;0.65;;;;;;;2.56;100.00;100131.84;693731;28;935;-65
2023/04/14 01:50:16;;;;;;;1.25;0.60;;;;;;;2.55;100.00;100130.13;691817;28;1213;-65
2023/04/14 01:50:39;;;;;;;1.73;0.60;;;;;;;2.58;100.00;100135.31;693051;28;1298;-65
2023/04/14 01:51:02;;;;;;;0.80;0.65;;;;;;;2.59;100.00;100123.28;692198;28;1740;-65
2023/04/14 01:51:25;;;;;;;0.82;0.70;;;;;;;2.59;100.00;100129.34;692494;28;1359;-65
2023/04/14 01:51:47;;;;;;;1.08;0.73;;;;;;;2.58;100.00;100126.72;689943;28;4430;-65
2023/04/14 01:52:12;;;;;;;1.05;0.52;;;;;;;2.55;100.00;100133.56;689218;28;1761;-65
2023/04/14 01:52:36;;;;;;;1.50;0.73;;;;;;;2.52;100.00;100130.03;690830;28;1421;-65
2023/04/14 01:52:58;;;;;;;0.95;0.70;;;;;;;2.50;100.00;100131.72;689217;28;1499;-65